sensor_id;sensor_type;location;lat;lon;timestamp;P1;durP1;ratioP1;P2;durP2;ratioP2
4650;SDS011;2338;49.602;8.722;2023-12-28T00:02:41;6.20;;;3.80;;
4650;SDS011;2338;49.602;8.722;2023-12-28T00:05:27;5.37;;;3.27;;
4650;SDS011;2338;49.602;8.722;2023-12-28T00:08:13;8.13;;;4.10;;
4650;SDS011;2338;49.602;8.722;2023-12-28T00:10:59;13.13;;;4.03;;
4650;SDS011;2338;49.602;8.722;2023-12-28T00:13:49;6.03;;;3.70;;
4650;SDS011;2338;49.602;8.722;2023-12-28T00:16:35;5.97;;;3.90;;
4650;SDS011;2338;49.602;8.722;2023-12-28T00:19:21;6.53;;;3.70;;
4650;SDS011;2338;49.602;8.722;2023-12-28T00:22:07;7.03;;;3.80;;
4650;SDS011;2338;49.602;8.722;2023-12-28T00:24:53;8.30;;;4.47;;
4650;SDS011;2338;49.602;8.722;2023-12-28T00:27:40;5.63;;;3.90;;
4650;SDS011;2338;49.602;8.722;2023-12-28T00:30:26;9.27;;;4.57;;
4650;SDS011;2338;49.602;8.722;2023-12-28T00:33:11;6.73;;;3.50;;
4650;SDS011;2338;49.602;8.722;2023-12-28T00:35:57;6.90;;;4.00;;
4650;SDS011;2338;49.602;8.722;2023-12-28T00:38:43;6.47;;;4.80;;
4650;SDS011;2338;49.602;8.722;2023-12-28T00:41:28;5.97;;;4.10;;
4650;SDS011;2338;49.602;8.722;2023-12-28T00:44:15;6.50;;;4.03;;
4650;SDS011;2338;49.602;8.722;2023-12-28T00:47:01;4.40;;;3.53;;
4650;SDS011;2338;49.602;8.722;2023-12-28T00:49:47;7.80;;;3.50;;
4650;SDS011;2338;49.602;8.722;2023-12-28T00:52:32;5.47;;;3.63;;
4650;SDS011;2338;49.602;8.722;2023-12-28T00:55:18;6.30;;;4.23;;
4650;SDS011;2338;49.602;8.722;2023-12-28T00:58:04;5.87;;;4.10;;
4650;SDS011;2338;49.602;8.722;2023-12-28T01:00:51;6.40;;;4.10;;
4650;SDS011;2338;49.602;8.722;2023-12-28T01:03:39;6.57;;;4.07;;
4650;SDS011;2338;49.602;8.722;2023-12-28T01:06:25;4.93;;;3.53;;
4650;SDS011;2338;49.602;8.722;2023-12-28T01:09:12;5.23;;;4.00;;
4650;SDS011;2338;49.602;8.722;2023-12-28T01:11:58;7.77;;;4.33;;
4650;SDS011;2338;49.602;8.722;2023-12-28T01:14:44;6.40;;;3.67;;
4650;SDS011;2338;49.602;8.722;2023-12-28T01:17:31;6.10;;;4.23;;
4650;SDS011;2338;49.602;8.722;2023-12-28T01:20:16;7.93;;;4.43;;
4650;SDS011;2338;49.602;8.722;2023-12-28T01:23:02;6.53;;;3.83;;
4650;SDS011;2338;49.602;8.722;2023-12-28T01:25:48;9.37;;;3.90;;
4650;SDS011;2338;49.602;8.722;2023-12-28T01:28:34;6.37;;;3.73;;
4650;SDS011;2338;49.602;8.722;2023-12-28T01:31:19;6.30;;;3.83;;
4650;SDS011;2338;49.602;8.722;2023-12-28T01:34:06;6.30;;;4.57;;
4650;SDS011;2338;49.602;8.722;2023-12-28T01:36:52;5.70;;;3.50;;
4650;SDS011;2338;49.602;8.722;2023-12-28T01:39:38;7.13;;;3.90;;
4650;SDS011;2338;49.602;8.722;2023-12-28T01:42:24;10.87;;;3.87;;
4650;SDS011;2338;49.602;8.722;2023-12-28T01:45:10;7.93;;;4.20;;
4650;SDS011;2338;49.602;8.722;2023-12-28T01:47:56;6.33;;;4.40;;
4650;SDS011;2338;49.602;8.722;2023-12-28T01:50:46;9.80;;;3.70;;
4650;SDS011;2338;49.602;8.722;2023-12-28T01:53:31;6.10;;;3.53;;
4650;SDS011;2338;49.602;8.722;2023-12-28T01:56:17;9.67;;;4.03;;
4650;SDS011;2338;49.602;8.722;2023-12-28T01:59:05;5.23;;;3.13;;
4650;SDS011;2338;49.602;8.722;2023-12-28T02:01:50;5.30;;;4.03;;
4650;SDS011;2338;49.602;8.722;2023-12-28T02:04:36;6.07;;;3.90;;
4650;SDS011;2338;49.602;8.722;2023-12-28T02:07:23;6.00;;;3.70;;
4650;SDS011;2338;49.602;8.722;2023-12-28T02:10:10;5.43;;;3.87;;
4650;SDS011;2338;49.602;8.722;2023-12-28T02:12:56;8.40;;;4.30;;
4650;SDS011;2338;49.602;8.722;2023-12-28T02:15:42;6.93;;;4.40;;
4650;SDS011;2338;49.602;8.722;2023-12-28T02:18:33;5.80;;;3.90;;
4650;SDS011;2338;49.602;8.722;2023-12-28T02:21:23;5.90;;;3.73;;
4650;SDS011;2338;49.602;8.722;2023-12-28T02:24:11;5.67;;;3.53;;
4650;SDS011;2338;49.602;8.722;2023-12-28T02:26:57;5.07;;;3.30;;
4650;SDS011;2338;49.602;8.722;2023-12-28T02:29:43;5.13;;;3.23;;
4650;SDS011;2338;49.602;8.722;2023-12-28T02:32:33;4.97;;;3.60;;
4650;SDS011;2338;49.602;8.722;2023-12-28T02:35:26;5.87;;;3.10;;
4650;SDS011;2338;49.602;8.722;2023-12-28T02:38:16;8.93;;;3.03;;
4650;SDS011;2338;49.602;8.722;2023-12-28T02:41:03;7.57;;;3.93;;
4650;SDS011;2338;49.602;8.722;2023-12-28T02:43:51;5.87;;;3.50;;
4650;SDS011;2338;49.602;8.722;2023-12-28T02:46:37;4.67;;;3.10;;
4650;SDS011;2338;49.602;8.722;2023-12-28T02:49:23;4.93;;;3.20;;
4650;SDS011;2338;49.602;8.722;2023-12-28T02:52:08;4.60;;;3.60;;
4650;SDS011;2338;49.602;8.722;2023-12-28T02:54:54;5.17;;;3.40;;
4650;SDS011;2338;49.602;8.722;2023-12-28T02:57:40;4.13;;;3.33;;
4650;SDS011;2338;49.602;8.722;2023-12-28T03:00:27;9.00;;;3.50;;
4650;SDS011;2338;49.602;8.722;2023-12-28T03:03:13;6.90;;;3.30;;
4650;SDS011;2338;49.602;8.722;2023-12-28T03:05:58;9.10;;;3.33;;
4650;SDS011;2338;49.602;8.722;2023-12-28T03:08:44;7.03;;;3.57;;
4650;SDS011;2338;49.602;8.722;2023-12-28T03:11:30;5.50;;;3.40;;
4650;SDS011;2338;49.602;8.722;2023-12-28T03:14:16;5.90;;;3.53;;
4650;SDS011;2338;49.602;8.722;2023-12-28T03:17:03;6.27;;;3.57;;
4650;SDS011;2338;49.602;8.722;2023-12-28T03:19:49;7.43;;;4.00;;
4650;SDS011;2338;49.602;8.722;2023-12-28T03:22:34;6.60;;;3.83;;
4650;SDS011;2338;49.602;8.722;2023-12-28T03:25:20;4.47;;;3.30;;
4650;SDS011;2338;49.602;8.722;2023-12-28T03:28:06;6.60;;;3.43;;
4650;SDS011;2338;49.602;8.722;2023-12-28T03:30:51;6.10;;;3.80;;
4650;SDS011;2338;49.602;8.722;2023-12-28T03:33:38;4.90;;;3.00;;
4650;SDS011;2338;49.602;8.722;2023-12-28T03:36:23;4.83;;;3.00;;
4650;SDS011;2338;49.602;8.722;2023-12-28T03:39:09;14.80;;;4.20;;
4650;SDS011;2338;49.602;8.722;2023-12-28T03:41:55;7.53;;;3.80;;
4650;SDS011;2338;49.602;8.722;2023-12-28T03:44:41;4.53;;;3.33;;
4650;SDS011;2338;49.602;8.722;2023-12-28T03:47:27;5.43;;;3.90;;
4650;SDS011;2338;49.602;8.722;2023-12-28T03:50:14;4.10;;;3.07;;
4650;SDS011;2338;49.602;8.722;2023-12-28T03:52:59;6.40;;;3.40;;
4650;SDS011;2338;49.602;8.722;2023-12-28T03:55:45;3.50;;;2.90;;
4650;SDS011;2338;49.602;8.722;2023-12-28T03:58:31;8.20;;;3.23;;
4650;SDS011;2338;49.602;8.722;2023-12-28T04:01:17;5.13;;;2.93;;
4650;SDS011;2338;49.602;8.722;2023-12-28T04:04:03;4.73;;;3.30;;
4650;SDS011;2338;49.602;8.722;2023-12-28T04:06:50;5.93;;;3.60;;
4650;SDS011;2338;49.602;8.722;2023-12-28T04:09:36;6.43;;;3.87;;
4650;SDS011;2338;49.602;8.722;2023-12-28T04:12:22;6.50;;;3.80;;
4650;SDS011;2338;49.602;8.722;2023-12-28T04:15:08;5.13;;;2.93;;
4650;SDS011;2338;49.602;8.722;2023-12-28T04:17:54;4.30;;;3.70;;
4650;SDS011;2338;49.602;8.722;2023-12-28T04:20:42;6.10;;;3.43;;
4650;SDS011;2338;49.602;8.722;2023-12-28T04:23:29;4.33;;;3.13;;
4650;SDS011;2338;49.602;8.722;2023-12-28T04:26:17;5.47;;;3.13;;
4650;SDS011;2338;49.602;8.722;2023-12-28T04:29:03;5.80;;;3.50;;
4650;SDS011;2338;49.602;8.722;2023-12-28T04:31:48;6.17;;;3.13;;
4650;SDS011;2338;49.602;8.722;2023-12-28T04:34:35;5.37;;;3.30;;
4650;SDS011;2338;49.602;8.722;2023-12-28T04:37:21;12.00;;;3.30;;
4650;SDS011;2338;49.602;8.722;2023-12-28T04:40:08;4.53;;;3.43;;
4650;SDS011;2338;49.602;8.722;2023-12-28T04:42:54;8.27;;;3.13;;
4650;SDS011;2338;49.602;8.722;2023-12-28T04:45:40;6.13;;;3.40;;
4650;SDS011;2338;49.602;8.722;2023-12-28T04:48:26;8.80;;;3.30;;
4650;SDS011;2338;49.602;8.722;2023-12-28T04:51:12;4.47;;;3.17;;
4650;SDS011;2338;49.602;8.722;2023-12-28T04:53:58;3.87;;;2.80;;
4650;SDS011;2338;49.602;8.722;2023-12-28T04:56:45;5.57;;;3.10;;
4650;SDS011;2338;49.602;8.722;2023-12-28T04:59:30;4.70;;;2.83;;
4650;SDS011;2338;49.602;8.722;2023-12-28T05:02:16;6.53;;;3.17;;
4650;SDS011;2338;49.602;8.722;2023-12-28T05:05:01;5.10;;;3.17;;
4650;SDS011;2338;49.602;8.722;2023-12-28T05:07:47;3.93;;;2.60;;
4650;SDS011;2338;49.602;8.722;2023-12-28T05:10:33;9.93;;;2.80;;
4650;SDS011;2338;49.602;8.722;2023-12-28T05:13:20;4.77;;;2.60;;
4650;SDS011;2338;49.602;8.722;2023-12-28T05:16:06;4.40;;;2.50;;
4650;SDS011;2338;49.602;8.722;2023-12-28T05:18:51;4.30;;;2.97;;
4650;SDS011;2338;49.602;8.722;2023-12-28T05:21:37;4.60;;;2.90;;
4650;SDS011;2338;49.602;8.722;2023-12-28T05:24:23;7.80;;;3.40;;
4650;SDS011;2338;49.602;8.722;2023-12-28T05:27:08;4.63;;;2.93;;
4650;SDS011;2338;49.602;8.722;2023-12-28T05:29:55;6.33;;;2.77;;
4650;SDS011;2338;49.602;8.722;2023-12-28T05:32:41;5.30;;;2.97;;
4650;SDS011;2338;49.602;8.722;2023-12-28T05:35:26;5.47;;;3.43;;
4650;SDS011;2338;49.602;8.722;2023-12-28T05:38:12;6.03;;;3.00;;
4650;SDS011;2338;49.602;8.722;2023-12-28T05:40:58;5.07;;;2.80;;
4650;SDS011;2338;49.602;8.722;2023-12-28T05:43:44;3.43;;;2.40;;
4650;SDS011;2338;49.602;8.722;2023-12-28T05:46:31;6.10;;;2.90;;
4650;SDS011;2338;49.602;8.722;2023-12-28T05:49:17;3.40;;;2.67;;
4650;SDS011;2338;49.602;8.722;2023-12-28T05:52:03;3.00;;;2.40;;
4650;SDS011;2338;49.602;8.722;2023-12-28T05:54:49;3.13;;;2.67;;
4650;SDS011;2338;49.602;8.722;2023-12-28T05:57:34;3.73;;;2.63;;
4650;SDS011;2338;49.602;8.722;2023-12-28T06:00:20;3.00;;;2.47;;
4650;SDS011;2338;49.602;8.722;2023-12-28T06:03:07;6.33;;;2.57;;
4650;SDS011;2338;49.602;8.722;2023-12-28T06:05:53;3.87;;;2.60;;
4650;SDS011;2338;49.602;8.722;2023-12-28T06:08:39;3.70;;;2.77;;
4650;SDS011;2338;49.602;8.722;2023-12-28T06:11:24;3.87;;;2.67;;
4650;SDS011;2338;49.602;8.722;2023-12-28T06:14:10;6.13;;;2.80;;
4650;SDS011;2338;49.602;8.722;2023-12-28T06:16:56;5.23;;;3.00;;
4650;SDS011;2338;49.602;8.722;2023-12-28T06:19:43;10.53;;;2.73;;
4650;SDS011;2338;49.602;8.722;2023-12-28T06:22:28;4.97;;;2.77;;
4650;SDS011;2338;49.602;8.722;2023-12-28T06:25:14;3.27;;;2.27;;
4650;SDS011;2338;49.602;8.722;2023-12-28T06:28:00;3.80;;;2.20;;
4650;SDS011;2338;49.602;8.722;2023-12-28T06:30:45;4.10;;;2.90;;
4650;SDS011;2338;49.602;8.722;2023-12-28T06:33:31;5.33;;;2.30;;
4650;SDS011;2338;49.602;8.722;2023-12-28T06:36:18;8.20;;;3.10;;
4650;SDS011;2338;49.602;8.722;2023-12-28T06:39:03;5.10;;;2.90;;
4650;SDS011;2338;49.602;8.722;2023-12-28T06:41:49;6.50;;;2.60;;
4650;SDS011;2338;49.602;8.722;2023-12-28T06:44:35;5.43;;;2.87;;
4650;SDS011;2338;49.602;8.722;2023-12-28T06:47:21;5.90;;;2.93;;
4650;SDS011;2338;49.602;8.722;2023-12-28T06:50:07;6.23;;;2.93;;
4650;SDS011;2338;49.602;8.722;2023-12-28T06:52:55;4.40;;;2.57;;
4650;SDS011;2338;49.602;8.722;2023-12-28T06:55:41;4.40;;;3.10;;
4650;SDS011;2338;49.602;8.722;2023-12-28T06:58:26;5.53;;;2.77;;
4650;SDS011;2338;49.602;8.722;2023-12-28T07:01:12;5.83;;;3.23;;
4650;SDS011;2338;49.602;8.722;2023-12-28T07:03:58;5.93;;;3.00;;
4650;SDS011;2338;49.602;8.722;2023-12-28T07:06:44;4.07;;;2.87;;
4650;SDS011;2338;49.602;8.722;2023-12-28T07:09:31;6.57;;;3.40;;
4650;SDS011;2338;49.602;8.722;2023-12-28T07:12:16;4.50;;;2.90;;
4650;SDS011;2338;49.602;8.722;2023-12-28T07:15:04;3.27;;;2.37;;
4650;SDS011;2338;49.602;8.722;2023-12-28T07:17:50;12.13;;;2.70;;
4650;SDS011;2338;49.602;8.722;2023-12-28T07:20:36;4.20;;;2.97;;
4650;SDS011;2338;49.602;8.722;2023-12-28T07:23:22;3.03;;;2.30;;
4650;SDS011;2338;49.602;8.722;2023-12-28T07:26:09;3.80;;;2.40;;
4650;SDS011;2338;49.602;8.722;2023-12-28T07:28:54;5.57;;;3.23;;
4650;SDS011;2338;49.602;8.722;2023-12-28T07:31:40;4.27;;;2.60;;
4650;SDS011;2338;49.602;8.722;2023-12-28T07:34:26;3.37;;;2.63;;
4650;SDS011;2338;49.602;8.722;2023-12-28T07:37:11;4.37;;;2.80;;
4650;SDS011;2338;49.602;8.722;2023-12-28T07:39:57;5.10;;;2.60;;
4650;SDS011;2338;49.602;8.722;2023-12-28T07:42:44;4.77;;;2.50;;
4650;SDS011;2338;49.602;8.722;2023-12-28T07:45:29;4.13;;;2.53;;
4650;SDS011;2338;49.602;8.722;2023-12-28T07:48:15;4.60;;;2.77;;
4650;SDS011;2338;49.602;8.722;2023-12-28T07:51:03;5.97;;;2.80;;
4650;SDS011;2338;49.602;8.722;2023-12-28T07:53:49;6.13;;;2.80;;
4650;SDS011;2338;49.602;8.722;2023-12-28T07:56:35;4.23;;;3.00;;
4650;SDS011;2338;49.602;8.722;2023-12-28T07:59:22;3.90;;;2.43;;
4650;SDS011;2338;49.602;8.722;2023-12-28T08:02:08;4.63;;;2.93;;
4650;SDS011;2338;49.602;8.722;2023-12-28T08:04:53;4.50;;;2.50;;
4650;SDS011;2338;49.602;8.722;2023-12-28T08:07:39;4.60;;;2.93;;
4650;SDS011;2338;49.602;8.722;2023-12-28T08:10:25;4.87;;;3.43;;
4650;SDS011;2338;49.602;8.722;2023-12-28T08:13:10;4.20;;;3.00;;
4650;SDS011;2338;49.602;8.722;2023-12-28T08:15:57;3.73;;;2.60;;
4650;SDS011;2338;49.602;8.722;2023-12-28T08:18:42;4.00;;;2.90;;
4650;SDS011;2338;49.602;8.722;2023-12-28T08:21:28;4.73;;;2.97;;
4650;SDS011;2338;49.602;8.722;2023-12-28T08:24:14;4.33;;;2.77;;
4650;SDS011;2338;49.602;8.722;2023-12-28T08:27:00;4.40;;;2.73;;
4650;SDS011;2338;49.602;8.722;2023-12-28T08:29:46;3.53;;;2.30;;
4650;SDS011;2338;49.602;8.722;2023-12-28T08:32:33;3.90;;;2.60;;
4650;SDS011;2338;49.602;8.722;2023-12-28T08:35:18;5.93;;;2.53;;
4650;SDS011;2338;49.602;8.722;2023-12-28T08:38:04;6.70;;;2.87;;
4650;SDS011;2338;49.602;8.722;2023-12-28T08:40:50;3.90;;;3.10;;
4650;SDS011;2338;49.602;8.722;2023-12-28T08:43:36;4.17;;;3.00;;
4650;SDS011;2338;49.602;8.722;2023-12-28T08:46:22;4.53;;;2.63;;
4650;SDS011;2338;49.602;8.722;2023-12-28T08:49:09;5.50;;;3.03;;
4650;SDS011;2338;49.602;8.722;2023-12-28T08:51:55;6.27;;;2.80;;
4650;SDS011;2338;49.602;8.722;2023-12-28T08:54:41;4.87;;;3.40;;
4650;SDS011;2338;49.602;8.722;2023-12-28T08:57:26;14.10;;;3.50;;
4650;SDS011;2338;49.602;8.722;2023-12-28T09:00:13;6.07;;;3.40;;
4650;SDS011;2338;49.602;8.722;2023-12-28T09:03:00;3.73;;;2.83;;
4650;SDS011;2338;49.602;8.722;2023-12-28T09:05:47;7.07;;;3.43;;
4650;SDS011;2338;49.602;8.722;2023-12-28T09:08:33;7.03;;;4.97;;
4650;SDS011;2338;49.602;8.722;2023-12-28T09:11:19;10.07;;;3.33;;
4650;SDS011;2338;49.602;8.722;2023-12-28T09:14:05;4.33;;;2.87;;
4650;SDS011;2338;49.602;8.722;2023-12-28T09:16:50;3.90;;;2.63;;
4650;SDS011;2338;49.602;8.722;2023-12-28T09:19:36;3.87;;;2.70;;
4650;SDS011;2338;49.602;8.722;2023-12-28T09:22:23;3.60;;;2.90;;
4650;SDS011;2338;49.602;8.722;2023-12-28T09:25:09;5.23;;;2.97;;
4650;SDS011;2338;49.602;8.722;2023-12-28T09:27:55;7.67;;;2.80;;
4650;SDS011;2338;49.602;8.722;2023-12-28T09:30:40;5.67;;;3.13;;
4650;SDS011;2338;49.602;8.722;2023-12-28T09:33:26;3.97;;;3.00;;
4650;SDS011;2338;49.602;8.722;2023-12-28T09:36:12;4.60;;;3.37;;
4650;SDS011;2338;49.602;8.722;2023-12-28T09:38:59;4.00;;;2.90;;
4650;SDS011;2338;49.602;8.722;2023-12-28T09:41:47;6.33;;;3.37;;
4650;SDS011;2338;49.602;8.722;2023-12-28T09:44:38;4.70;;;2.83;;
4650;SDS011;2338;49.602;8.722;2023-12-28T09:47:28;6.40;;;3.00;;
4650;SDS011;2338;49.602;8.722;2023-12-28T09:50:14;3.73;;;2.60;;
4650;SDS011;2338;49.602;8.722;2023-12-28T09:53:02;3.63;;;2.40;;
4650;SDS011;2338;49.602;8.722;2023-12-28T09:55:50;6.00;;;3.30;;
4650;SDS011;2338;49.602;8.722;2023-12-28T09:58:36;4.80;;;2.30;;
4650;SDS011;2338;49.602;8.722;2023-12-28T10:01:22;4.10;;;2.73;;
4650;SDS011;2338;49.602;8.722;2023-12-28T10:04:08;5.70;;;2.77;;
4650;SDS011;2338;49.602;8.722;2023-12-28T10:06:54;5.07;;;3.00;;
4650;SDS011;2338;49.602;8.722;2023-12-28T10:09:39;6.83;;;3.00;;
4650;SDS011;2338;49.602;8.722;2023-12-28T10:12:26;5.43;;;2.97;;
4650;SDS011;2338;49.602;8.722;2023-12-28T10:15:12;3.27;;;2.63;;
4650;SDS011;2338;49.602;8.722;2023-12-28T10:17:59;5.33;;;2.97;;
4650;SDS011;2338;49.602;8.722;2023-12-28T10:20:48;3.80;;;2.63;;
4650;SDS011;2338;49.602;8.722;2023-12-28T10:23:34;4.00;;;2.60;;
4650;SDS011;2338;49.602;8.722;2023-12-28T10:26:20;4.40;;;3.17;;
4650;SDS011;2338;49.602;8.722;2023-12-28T10:29:07;5.13;;;3.23;;
4650;SDS011;2338;49.602;8.722;2023-12-28T10:31:53;5.60;;;2.97;;
4650;SDS011;2338;49.602;8.722;2023-12-28T10:34:38;8.13;;;3.93;;
4650;SDS011;2338;49.602;8.722;2023-12-28T10:37:24;4.73;;;2.90;;
4650;SDS011;2338;49.602;8.722;2023-12-28T10:40:12;5.77;;;3.40;;
4650;SDS011;2338;49.602;8.722;2023-12-28T10:42:59;3.60;;;3.00;;
4650;SDS011;2338;49.602;8.722;2023-12-28T10:45:49;4.53;;;3.00;;
4650;SDS011;2338;49.602;8.722;2023-12-28T10:48:37;6.17;;;2.80;;
4650;SDS011;2338;49.602;8.722;2023-12-28T10:51:26;3.50;;;2.77;;
4650;SDS011;2338;49.602;8.722;2023-12-28T10:54:20;7.03;;;2.83;;
4650;SDS011;2338;49.602;8.722;2023-12-28T10:57:21;3.90;;;3.00;;
4650;SDS011;2338;49.602;8.722;2023-12-28T11:00:13;4.60;;;3.07;;
4650;SDS011;2338;49.602;8.722;2023-12-28T11:03:03;4.50;;;2.70;;
4650;SDS011;2338;49.602;8.722;2023-12-28T11:05:53;6.23;;;3.03;;
4650;SDS011;2338;49.602;8.722;2023-12-28T11:08:41;7.10;;;2.97;;
4650;SDS011;2338;49.602;8.722;2023-12-28T11:11:30;4.30;;;3.20;;
4650;SDS011;2338;49.602;8.722;2023-12-28T11:14:17;6.67;;;3.67;;
4650;SDS011;2338;49.602;8.722;2023-12-28T11:17:03;4.47;;;2.80;;
4650;SDS011;2338;49.602;8.722;2023-12-28T11:19:50;4.10;;;2.80;;
4650;SDS011;2338;49.602;8.722;2023-12-28T11:22:38;4.73;;;2.80;;
4650;SDS011;2338;49.602;8.722;2023-12-28T11:25:24;7.87;;;3.00;;
4650;SDS011;2338;49.602;8.722;2023-12-28T11:28:15;4.00;;;2.60;;
4650;SDS011;2338;49.602;8.722;2023-12-28T11:31:01;7.13;;;2.77;;
4650;SDS011;2338;49.602;8.722;2023-12-28T11:33:47;4.40;;;2.97;;
4650;SDS011;2338;49.602;8.722;2023-12-28T11:36:40;4.23;;;3.00;;
4650;SDS011;2338;49.602;8.722;2023-12-28T11:39:32;8.10;;;3.07;;
4650;SDS011;2338;49.602;8.722;2023-12-28T11:42:19;4.90;;;3.10;;
4650;SDS011;2338;49.602;8.722;2023-12-28T11:45:06;5.03;;;2.90;;
4650;SDS011;2338;49.602;8.722;2023-12-28T11:47:58;5.87;;;3.13;;
4650;SDS011;2338;49.602;8.722;2023-12-28T11:50:45;8.73;;;2.80;;
4650;SDS011;2338;49.602;8.722;2023-12-28T11:53:32;5.07;;;2.97;;
4650;SDS011;2338;49.602;8.722;2023-12-28T11:56:19;10.27;;;2.70;;
4650;SDS011;2338;49.602;8.722;2023-12-28T11:59:04;4.50;;;2.47;;
4650;SDS011;2338;49.602;8.722;2023-12-28T12:01:52;4.33;;;2.47;;
4650;SDS011;2338;49.602;8.722;2023-12-28T12:04:38;4.87;;;2.47;;
4650;SDS011;2338;49.602;8.722;2023-12-28T12:07:23;3.87;;;2.57;;
4650;SDS011;2338;49.602;8.722;2023-12-28T12:10:14;3.70;;;2.57;;
4650;SDS011;2338;49.602;8.722;2023-12-28T12:13:00;5.80;;;3.00;;
4650;SDS011;2338;49.602;8.722;2023-12-28T12:15:50;3.73;;;2.30;;
4650;SDS011;2338;49.602;8.722;2023-12-28T12:18:35;5.40;;;3.10;;
4650;SDS011;2338;49.602;8.722;2023-12-28T12:21:21;5.10;;;2.70;;
4650;SDS011;2338;49.602;8.722;2023-12-28T12:24:09;5.87;;;2.80;;
4650;SDS011;2338;49.602;8.722;2023-12-28T12:26:56;5.00;;;2.60;;
4650;SDS011;2338;49.602;8.722;2023-12-28T12:29:42;5.50;;;3.20;;
4650;SDS011;2338;49.602;8.722;2023-12-28T12:32:27;4.33;;;2.40;;
4650;SDS011;2338;49.602;8.722;2023-12-28T12:35:13;7.43;;;2.80;;
4650;SDS011;2338;49.602;8.722;2023-12-28T12:38:00;7.90;;;3.10;;
4650;SDS011;2338;49.602;8.722;2023-12-28T12:40:46;3.70;;;2.60;;
4650;SDS011;2338;49.602;8.722;2023-12-28T12:43:36;5.43;;;2.70;;
4650;SDS011;2338;49.602;8.722;2023-12-28T12:46:22;6.37;;;3.00;;
4650;SDS011;2338;49.602;8.722;2023-12-28T12:49:07;6.77;;;2.40;;
4650;SDS011;2338;49.602;8.722;2023-12-28T12:51:53;5.03;;;2.90;;
4650;SDS011;2338;49.602;8.722;2023-12-28T12:54:39;5.27;;;2.70;;
4650;SDS011;2338;49.602;8.722;2023-12-28T12:57:25;4.90;;;2.63;;
4650;SDS011;2338;49.602;8.722;2023-12-28T13:00:12;3.30;;;2.70;;
4650;SDS011;2338;49.602;8.722;2023-12-28T13:02:58;6.80;;;2.50;;
4650;SDS011;2338;49.602;8.722;2023-12-28T13:05:44;4.23;;;2.47;;
4650;SDS011;2338;49.602;8.722;2023-12-28T13:08:30;4.67;;;2.50;;
4650;SDS011;2338;49.602;8.722;2023-12-28T13:11:16;3.83;;;2.60;;
4650;SDS011;2338;49.602;8.722;2023-12-28T13:14:01;3.87;;;2.30;;
4650;SDS011;2338;49.602;8.722;2023-12-28T13:16:49;4.80;;;2.90;;
4650;SDS011;2338;49.602;8.722;2023-12-28T13:19:38;4.93;;;2.33;;
4650;SDS011;2338;49.602;8.722;2023-12-28T13:22:23;3.53;;;2.63;;
4650;SDS011;2338;49.602;8.722;2023-12-28T13:25:10;3.90;;;2.23;;
4650;SDS011;2338;49.602;8.722;2023-12-28T13:27:56;4.90;;;2.10;;
4650;SDS011;2338;49.602;8.722;2023-12-28T13:30:41;3.83;;;2.33;;
4650;SDS011;2338;49.602;8.722;2023-12-28T13:33:29;3.90;;;2.63;;
4650;SDS011;2338;49.602;8.722;2023-12-28T13:36:14;3.90;;;2.67;;
4650;SDS011;2338;49.602;8.722;2023-12-28T13:39:02;3.77;;;2.60;;
4650;SDS011;2338;49.602;8.722;2023-12-28T13:41:49;4.70;;;3.03;;
4650;SDS011;2338;49.602;8.722;2023-12-28T13:44:34;4.10;;;2.30;;
4650;SDS011;2338;49.602;8.722;2023-12-28T13:47:20;2.67;;;2.27;;
4650;SDS011;2338;49.602;8.722;2023-12-28T13:50:08;3.73;;;2.20;;
4650;SDS011;2338;49.602;8.722;2023-12-28T13:52:54;2.67;;;2.23;;
4650;SDS011;2338;49.602;8.722;2023-12-28T13:55:40;3.70;;;2.73;;
4650;SDS011;2338;49.602;8.722;2023-12-28T13:58:26;4.23;;;2.77;;
4650;SDS011;2338;49.602;8.722;2023-12-28T14:01:11;3.33;;;2.50;;
4650;SDS011;2338;49.602;8.722;2023-12-28T14:03:57;3.70;;;2.73;;
4650;SDS011;2338;49.602;8.722;2023-12-28T14:06:44;4.00;;;3.03;;
4650;SDS011;2338;49.602;8.722;2023-12-28T14:09:30;5.53;;;3.20;;
4650;SDS011;2338;49.602;8.722;2023-12-28T14:12:16;3.30;;;2.70;;
4650;SDS011;2338;49.602;8.722;2023-12-28T14:15:03;4.23;;;2.90;;
4650;SDS011;2338;49.602;8.722;2023-12-28T14:17:49;4.43;;;2.87;;
4650;SDS011;2338;49.602;8.722;2023-12-28T14:20:34;4.20;;;3.10;;
4650;SDS011;2338;49.602;8.722;2023-12-28T14:23:23;3.60;;;3.00;;
4650;SDS011;2338;49.602;8.722;2023-12-28T14:26:11;6.80;;;3.00;;
4650;SDS011;2338;49.602;8.722;2023-12-28T14:28:58;6.23;;;3.17;;
4650;SDS011;2338;49.602;8.722;2023-12-28T14:31:46;4.00;;;2.80;;
4650;SDS011;2338;49.602;8.722;2023-12-28T14:34:33;3.33;;;2.60;;
4650;SDS011;2338;49.602;8.722;2023-12-28T14:37:19;7.10;;;3.30;;
4650;SDS011;2338;49.602;8.722;2023-12-28T14:40:07;6.53;;;2.50;;
4650;SDS011;2338;49.602;8.722;2023-12-28T14:42:55;4.83;;;3.23;;
4650;SDS011;2338;49.602;8.722;2023-12-28T14:45:40;4.43;;;3.40;;
4650;SDS011;2338;49.602;8.722;2023-12-28T14:48:26;10.20;;;4.50;;
4650;SDS011;2338;49.602;8.722;2023-12-28T14:51:12;4.40;;;3.70;;
4650;SDS011;2338;49.602;8.722;2023-12-28T14:53:57;5.23;;;3.93;;
4650;SDS011;2338;49.602;8.722;2023-12-28T14:56:44;6.20;;;3.10;;
4650;SDS011;2338;49.602;8.722;2023-12-28T14:59:30;5.43;;;3.63;;
4650;SDS011;2338;49.602;8.722;2023-12-28T15:02:16;4.70;;;4.13;;
4650;SDS011;2338;49.602;8.722;2023-12-28T15:05:02;5.00;;;3.93;;
4650;SDS011;2338;49.602;8.722;2023-12-28T15:07:49;5.03;;;3.37;;
4650;SDS011;2338;49.602;8.722;2023-12-28T15:10:35;7.97;;;4.30;;
4650;SDS011;2338;49.602;8.722;2023-12-28T15:13:22;6.80;;;4.80;;
4650;SDS011;2338;49.602;8.722;2023-12-28T15:16:08;10.20;;;4.20;;
4650;SDS011;2338;49.602;8.722;2023-12-28T15:18:55;8.50;;;3.43;;
4650;SDS011;2338;49.602;8.722;2023-12-28T15:21:41;17.10;;;3.83;;
4650;SDS011;2338;49.602;8.722;2023-12-28T15:24:27;3.43;;;3.00;;
4650;SDS011;2338;49.602;8.722;2023-12-28T15:27:13;4.97;;;3.20;;
4650;SDS011;2338;49.602;8.722;2023-12-28T15:30:00;6.90;;;3.63;;
4650;SDS011;2338;49.602;8.722;2023-12-28T15:32:46;3.63;;;3.00;;
4650;SDS011;2338;49.602;8.722;2023-12-28T15:35:32;5.20;;;3.30;;
4650;SDS011;2338;49.602;8.722;2023-12-28T15:38:17;5.00;;;3.27;;
4650;SDS011;2338;49.602;8.722;2023-12-28T15:41:03;5.00;;;3.03;;
4650;SDS011;2338;49.602;8.722;2023-12-28T15:43:49;4.63;;;3.17;;
4650;SDS011;2338;49.602;8.722;2023-12-28T15:46:36;3.70;;;3.20;;
4650;SDS011;2338;49.602;8.722;2023-12-28T15:49:21;4.30;;;3.10;;
4650;SDS011;2338;49.602;8.722;2023-12-28T15:52:07;10.90;;;3.70;;
4650;SDS011;2338;49.602;8.722;2023-12-28T15:54:53;6.40;;;3.07;;
4650;SDS011;2338;49.602;8.722;2023-12-28T15:57:38;5.60;;;3.47;;
4650;SDS011;2338;49.602;8.722;2023-12-28T16:00:24;4.00;;;2.93;;
4650;SDS011;2338;49.602;8.722;2023-12-28T16:03:12;4.10;;;2.60;;
4650;SDS011;2338;49.602;8.722;2023-12-28T16:05:58;5.30;;;3.13;;
4650;SDS011;2338;49.602;8.722;2023-12-28T16:08:43;4.20;;;3.30;;
4650;SDS011;2338;49.602;8.722;2023-12-28T16:11:29;4.03;;;3.23;;
4650;SDS011;2338;49.602;8.722;2023-12-28T16:14:15;5.33;;;3.20;;
4650;SDS011;2338;49.602;8.722;2023-12-28T16:17:03;6.47;;;3.23;;
4650;SDS011;2338;49.602;8.722;2023-12-28T16:19:51;4.30;;;3.30;;
4650;SDS011;2338;49.602;8.722;2023-12-28T16:22:37;3.77;;;2.40;;
4650;SDS011;2338;49.602;8.722;2023-12-28T16:25:23;11.83;;;2.93;;
4650;SDS011;2338;49.602;8.722;2023-12-28T16:28:09;7.60;;;3.50;;
4650;SDS011;2338;49.602;8.722;2023-12-28T16:30:54;3.50;;;2.90;;
4650;SDS011;2338;49.602;8.722;2023-12-28T16:33:40;4.93;;;2.87;;
4650;SDS011;2338;49.602;8.722;2023-12-28T16:36:27;3.00;;;2.50;;
4650;SDS011;2338;49.602;8.722;2023-12-28T16:39:12;5.90;;;3.90;;
4650;SDS011;2338;49.602;8.722;2023-12-28T16:41:58;10.33;;;3.00;;
4650;SDS011;2338;49.602;8.722;2023-12-28T16:44:45;10.97;;;3.77;;
4650;SDS011;2338;49.602;8.722;2023-12-28T16:47:31;5.30;;;3.20;;
4650;SDS011;2338;49.602;8.722;2023-12-28T16:50:17;5.00;;;2.90;;
4650;SDS011;2338;49.602;8.722;2023-12-28T16:53:04;3.10;;;2.30;;
4650;SDS011;2338;49.602;8.722;2023-12-28T16:55:50;5.80;;;3.03;;
4650;SDS011;2338;49.602;8.722;2023-12-28T16:58:35;5.30;;;3.03;;
4650;SDS011;2338;49.602;8.722;2023-12-28T17:01:21;4.53;;;2.77;;
4650;SDS011;2338;49.602;8.722;2023-12-28T17:04:06;4.03;;;3.37;;
4650;SDS011;2338;49.602;8.722;2023-12-28T17:06:52;6.33;;;3.40;;
4650;SDS011;2338;49.602;8.722;2023-12-28T17:09:40;4.90;;;3.70;;
4650;SDS011;2338;49.602;8.722;2023-12-28T17:12:26;12.47;;;2.70;;
4650;SDS011;2338;49.602;8.722;2023-12-28T17:15:16;4.23;;;2.90;;